CheckWX is a tool to help pilots better visualize weather data.  It is not intended as a substitute for an official pre-flight weather briefing.

23:54:21 UTC

EPKT TAF
Katowice International Airport
Katowice, Poland
TAF EPKT 142330Z 1500/1524 10010KT 7000 OVC003 TEMPO 1500/1507 3000 BR PROB40 TEMPO 1500/1507 0200 FG OVC001 BECMG 1507/1510 SCT015 BECMG 1515/1518 2000 BR BECMG 1518/1521 0800 FG OVC004

Nov-15@
00:00 UTC

Nov-15 @ 00:00 UTC

Nov-15@
07:00 UTC

Nov-15 @ 07:00 UTC

TAF EPKT 142330Z 1500/1524 10010KT 7000 OVC003
Wind
  • 100° at 10 KTS
Cloud Levels
  • Overcast at 300' AGL

Nov-15@
00:00 UTC

Nov-15 @ 00:00 UTC

Nov-15@
07:00 UTC

Nov-15 @ 07:00 UTC

TEMPO 1500/1507 3000 BR

Temporary

Temporary Changes expected for less than half the time period

Conditions
Mist

Nov-15@
00:00 UTC

Nov-15 @ 00:00 UTC

Nov-15@
07:00 UTC

Nov-15 @ 07:00 UTC

PROB40 TEMPO 1500/1507 0200 FG OVC001

Temporary - 40% Likelihood

Temporary - 40% Likelihood during this time.

Conditions
Fog
Cloud Levels
  • Overcast at 100' AGL

Nov-15@
07:00 UTC

Nov-15 @ 07:00 UTC

Nov-15@
15:00 UTC

Nov-15 @ 15:00 UTC

BECMG 1507/1510 SCT015

Becoming

Becoming Conditions expected by Fri, Nov 15, 2019 @ 10:00 UTC

Wind
  • 100° at 10 KTS
Cloud Levels
  • Scattered at 1,500' AGL

Nov-15@
15:00 UTC

Nov-15 @ 15:00 UTC

Nov-15@
18:00 UTC

Nov-15 @ 18:00 UTC

BECMG 1515/1518 2000 BR

Becoming

Becoming Conditions expected by Fri, Nov 15, 2019 @ 18:00 UTC

Wind
  • 100° at 10 KTS
Conditions
Mist
Cloud Levels
  • Scattered at 1,500' AGL

Nov-15@
18:00 UTC

Nov-15 @ 18:00 UTC

Nov-16@
00:00 UTC

Nov-16 @ 00:00 UTC

BECMG 1518/1521 0800 FG OVC004

Becoming

Becoming Conditions expected by Fri, Nov 15, 2019 @ 21:00 UTC

Wind
  • 100° at 10 KTS
Conditions
Fog
Cloud Levels
  • Overcast at 400' AGL